Capitol Logistics 2157

Operating for AJT



KCVG
Cincinnati/Northern Kentucky International Airport
Covington, Kentucky
KBWI
Baltimore/Washington International Thurgood Marshall Airport
Baltimore, Maryland

Activity Log

Date Flight Route Aircraft Duration
No Flights Yet

Route Details

Aircraft Information
Primary: Boeing 767-300BDSF
Backup: Boeing 757-200SF
Route Data
Distance: 373nm
Duration: 1h 04m
Recm'd Route: GIPLE6 HVQ RAVNN6
Origin Wx: KCVG 180052Z 23004KT 10SM FEW150 FEW250 09/05 A2991 RMK AO2 SLP127 T00940050
Dest. Wx: KBWI 180054Z 32003KT 10SM FEW140 SCT200 12/03 A2985 RMK AO2 SLP107 T01220028
Notes: